createdAt,value
2018-06-05T00:02:03.911Z,6.33
2018-06-05T00:05:28.712Z,6.70
2018-06-05T00:08:53.429Z,7.30
2018-06-05T00:12:18.376Z,7.20
2018-06-05T00:15:43.055Z,7.57
2018-06-05T00:19:07.811Z,6.90
2018-06-05T00:22:32.658Z,7.07
2018-06-05T00:25:57.481Z,7.23
2018-06-05T00:29:22.337Z,6.50
2018-06-05T00:32:47.187Z,6.30
2018-06-05T00:36:12.075Z,6.10
2018-06-05T00:39:37.060Z,5.87
2018-06-05T00:43:02.248Z,5.13
2018-06-05T00:46:27.215Z,6.10
2018-06-05T00:49:52.095Z,5.63
2018-06-05T00:53:17.591Z,6.03
2018-06-05T00:56:42.573Z,5.83
2018-06-05T01:00:07.415Z,6.07
2018-06-05T01:03:32.292Z,6.03
2018-06-05T01:06:57.155Z,5.73
2018-06-05T01:10:21.821Z,5.77
2018-06-05T01:13:46.612Z,5.70
2018-06-05T01:17:11.415Z,5.10
2018-06-05T01:20:36.268Z,5.20
2018-06-05T01:24:01.197Z,5.30
2018-06-05T01:27:25.671Z,5.20
2018-06-05T01:30:50.537Z,5.03
2018-06-05T01:34:15.691Z,5.87
2018-06-05T01:37:40.527Z,5.63
2018-06-05T01:41:05.267Z,5.73
2018-06-05T01:45:54.654Z,5.50
2018-06-05T01:49:19.013Z,5.50
2018-06-05T01:52:43.817Z,5.40
2018-06-05T01:56:08.748Z,5.50
2018-06-05T01:59:33.603Z,5.77
2018-06-05T02:02:58.392Z,6.13
2018-06-05T02:06:23.291Z,6.30
2018-06-05T02:09:48.105Z,5.93
2018-06-05T02:13:12.970Z,6.40
2018-06-05T02:16:37.801Z,6.53
2018-06-05T02:20:02.550Z,5.90
2018-06-05T02:23:27.512Z,5.37
2018-06-05T02:26:52.352Z,5.93
2018-06-05T02:30:17.226Z,7.00
2018-06-05T02:33:41.997Z,7.57
2018-06-05T02:37:06.812Z,7.43
2018-06-05T02:40:31.643Z,7.90
2018-06-05T02:43:56.532Z,8.03
2018-06-05T02:47:21.343Z,7.13
2018-06-05T02:50:46.127Z,7.50
2018-06-05T02:54:10.946Z,7.57
2018-06-05T02:57:35.796Z,6.87
2018-06-05T03:01:00.757Z,7.07
2018-06-05T03:04:25.579Z,7.00
2018-06-05T03:07:50.415Z,7.80
2018-06-05T03:11:16.661Z,7.63
2018-06-05T03:14:41.490Z,7.47
2018-06-05T03:18:06.299Z,6.97
2018-06-05T03:21:31.058Z,7.50
2018-06-05T03:24:55.733Z,8.43
2018-06-05T03:28:20.665Z,8.43
2018-06-05T03:31:45.364Z,7.53
2018-06-05T03:35:10.172Z,8.07
2018-06-05T03:38:36.290Z,8.40
2018-06-05T03:42:01.104Z,9.27
2018-06-05T03:45:25.968Z,8.20
2018-06-05T03:48:50.359Z,8.33
2018-06-05T03:52:15.153Z,7.10
2018-06-05T03:55:39.999Z,8.43
2018-06-05T03:59:04.762Z,7.53
2018-06-05T04:02:29.661Z,8.80
2018-06-05T04:05:54.485Z,9.53
2018-06-05T04:09:19.163Z,8.80
2018-06-05T04:12:43.899Z,9.40
2018-06-05T04:16:08.621Z,8.87
2018-06-05T04:19:33.299Z,8.73
2018-06-05T04:30:52.240Z,9.77
2018-06-05T04:34:17.185Z,10.23
2018-06-05T04:37:41.586Z,10.17
2018-06-05T04:41:06.393Z,10.57
2018-06-05T04:44:31.182Z,10.80
2018-06-05T04:47:55.854Z,10.07
2018-06-05T04:51:20.724Z,9.90
2018-06-05T04:54:45.421Z,11.17
2018-06-05T04:58:10.128Z,10.23
2018-06-05T05:01:34.938Z,11.13
2018-06-05T05:04:59.738Z,10.93
2018-06-05T05:08:24.447Z,10.30
2018-06-05T05:11:49.503Z,10.30
2018-06-05T05:15:14.344Z,10.07
2018-06-05T05:19:12.976Z,10.43
2018-06-05T05:22:37.707Z,9.13
2018-06-05T05:26:02.561Z,9.73
2018-06-05T05:29:27.337Z,10.00
2018-06-05T05:32:52.219Z,9.50
2018-06-05T05:36:17.134Z,9.10
2018-06-05T05:39:41.876Z,8.73
2018-06-05T05:43:06.940Z,8.33
2018-06-05T05:46:31.638Z,8.57
2018-06-05T05:49:56.475Z,8.23
2018-06-05T05:53:21.127Z,7.83
2018-06-05T05:56:45.806Z,8.13
2018-06-05T06:00:10.516Z,8.07
2018-06-05T06:03:35.223Z,8.10
2018-06-05T06:06:59.695Z,8.37
2018-06-05T06:10:24.437Z,8.37
2018-06-05T06:13:49.144Z,8.57
2018-06-05T06:17:13.779Z,8.47
2018-06-05T06:20:38.439Z,10.00
2018-06-05T06:24:03.234Z,9.40
2018-06-05T06:27:27.945Z,8.67
2018-06-05T06:30:52.655Z,8.60
2018-06-05T06:34:17.470Z,7.87
2018-06-05T06:37:42.391Z,7.57
2018-06-05T06:41:07.164Z,8.80
2018-06-05T06:44:31.988Z,8.07
2018-06-05T06:47:56.617Z,7.27
2018-06-05T06:51:21.278Z,8.00
2018-06-05T06:54:46.160Z,7.20
2018-06-05T06:58:10.881Z,7.93
2018-06-05T07:01:35.634Z,8.27
2018-06-05T07:05:00.241Z,8.00
2018-06-05T07:08:25.022Z,8.90
2018-06-05T07:11:49.414Z,8.67
2018-06-05T07:15:14.109Z,8.43
2018-06-05T07:18:38.858Z,9.47
2018-06-05T07:22:03.509Z,7.80
2018-06-05T07:25:27.828Z,9.30
2018-06-05T07:28:52.707Z,9.10
2018-06-05T07:32:17.320Z,9.10
2018-06-05T07:35:42.076Z,9.07
2018-06-05T07:39:09.262Z,8.33
2018-06-05T07:42:34.058Z,6.60
2018-06-05T07:45:58.824Z,6.13
2018-06-05T07:49:23.166Z,6.17
2018-06-05T07:52:47.848Z,5.70
2018-06-05T07:56:12.692Z,5.47
2018-06-05T07:59:37.367Z,7.37
2018-06-05T08:03:02.096Z,6.83
2018-06-05T08:06:26.845Z,7.90
2018-06-05T08:09:51.700Z,7.83
2018-06-05T08:13:16.404Z,7.50
2018-06-05T08:16:41.119Z,6.97
2018-06-05T08:20:05.973Z,6.27
2018-06-05T08:23:30.619Z,6.57
2018-06-05T08:26:55.323Z,7.70
2018-06-05T08:30:20.333Z,7.27
2018-06-05T08:33:45.042Z,6.73
2018-06-05T08:37:09.972Z,8.43
2018-06-05T08:40:34.795Z,7.37
2018-06-05T08:43:59.539Z,7.90
2018-06-05T08:47:24.271Z,8.57
2018-06-05T08:50:48.946Z,8.77
2018-06-05T08:54:13.367Z,8.37
2018-06-05T08:57:38.036Z,8.93
2018-06-05T09:01:02.765Z,8.37
2018-06-05T09:04:27.042Z,7.23
2018-06-05T09:07:51.760Z,7.43
2018-06-05T09:11:16.534Z,6.77
2018-06-05T09:14:41.225Z,9.03
2018-06-05T09:18:05.996Z,8.27
2018-06-05T09:21:30.351Z,8.33
2018-06-05T09:24:55.060Z,8.93
2018-06-05T09:28:19.819Z,8.03
2018-06-05T09:31:44.118Z,7.93
2018-06-05T09:35:08.828Z,9.67
2018-06-05T09:38:33.606Z,8.10
2018-06-05T09:41:58.339Z,9.63
2018-06-05T09:45:23.102Z,9.10
2018-06-05T09:48:47.841Z,7.73
2018-06-05T09:52:12.490Z,9.07
2018-06-05T09:55:37.220Z,8.77
2018-06-05T09:59:01.924Z,7.53
2018-06-05T10:02:26.720Z,7.30
2018-06-05T10:05:51.386Z,7.40
2018-06-05T10:09:16.121Z,7.03
2018-06-05T10:12:40.444Z,6.63
2018-06-05T10:16:05.979Z,7.67
2018-06-05T10:19:30.969Z,7.67
2018-06-05T10:22:55.796Z,7.43
2018-06-05T10:26:20.569Z,7.10
2018-06-05T10:29:45.266Z,6.97
2018-06-05T10:33:10.556Z,6.63
2018-06-05T10:36:40.063Z,6.37
2018-06-05T10:40:05.850Z,6.07
2018-06-05T10:43:31.160Z,5.90
2018-06-05T10:46:57.048Z,6.53
2018-06-05T10:50:22.143Z,6.53
2018-06-05T10:53:47.099Z,7.43
2018-06-05T10:57:11.741Z,6.90
2018-06-05T11:00:36.590Z,7.03
2018-06-05T11:04:01.481Z,7.57
2018-06-05T11:07:26.233Z,8.97
2018-06-05T11:10:50.932Z,7.30
2018-06-05T11:14:16.250Z,8.40
2018-06-05T11:17:41.078Z,10.13
2018-06-05T11:21:05.835Z,10.50
2018-06-05T11:24:30.618Z,9.97
2018-06-05T11:27:54.974Z,8.73
2018-06-05T11:31:19.872Z,10.37
2018-06-05T11:34:44.588Z,9.37
2018-06-05T11:38:09.492Z,9.70
2018-06-05T11:41:33.874Z,10.30
2018-06-05T11:44:58.830Z,10.13
2018-06-05T11:48:23.598Z,9.53
2018-06-05T11:51:48.644Z,9.77
2018-06-05T11:55:13.275Z,9.73
2018-06-05T11:58:37.958Z,8.80
2018-06-05T12:02:12.514Z,8.60
2018-06-05T12:05:37.274Z,9.10
2018-06-05T12:09:01.763Z,8.20
2018-06-05T12:12:26.548Z,7.67
2018-06-05T12:15:51.260Z,7.03
2018-06-05T12:19:16.015Z,8.13
2018-06-05T12:22:40.885Z,7.67
2018-06-05T12:26:05.528Z,6.57
2018-06-05T12:29:31.382Z,7.53
2018-06-05T12:32:56.010Z,7.50
2018-06-05T12:36:20.914Z,7.70
2018-06-05T12:39:45.624Z,7.30
2018-06-05T12:43:10.330Z,7.53
2018-06-05T12:46:35.326Z,8.23
2018-06-05T12:50:00.124Z,8.67
2018-06-05T12:53:24.902Z,8.23
2018-06-05T12:56:49.817Z,7.97
2018-06-05T13:00:14.668Z,8.20
2018-06-05T13:03:39.371Z,7.47
2018-06-05T13:07:04.248Z,7.77
2018-06-05T13:10:29.117Z,8.07
2018-06-05T13:13:54.043Z,8.17
2018-06-05T13:17:18.958Z,7.50
2018-06-05T13:20:45.012Z,7.27
2018-06-05T13:24:10.290Z,7.10
2018-06-05T13:27:36.347Z,6.67
2018-06-05T13:31:01.585Z,6.80
2018-06-05T13:34:25.930Z,7.37
2018-06-05T13:37:50.656Z,7.17
2018-06-05T13:41:15.532Z,6.27
2018-06-05T13:44:40.190Z,6.67
2018-06-05T13:48:04.535Z,6.97
2018-06-05T13:51:29.382Z,6.43
2018-06-05T13:54:53.815Z,6.63
2018-06-05T13:58:22.712Z,6.07
2018-06-05T14:01:48.988Z,6.40
2018-06-05T14:05:15.624Z,6.23
2018-06-05T14:08:41.280Z,6.50
2018-06-05T14:12:07.055Z,7.00
2018-06-05T14:15:32.784Z,7.03
2018-06-05T14:18:59.828Z,6.20
2018-06-05T14:22:24.698Z,5.93
2018-06-05T14:25:50.644Z,6.33
2018-06-05T14:29:16.587Z,6.80
2018-06-05T14:32:43.094Z,6.47
2018-06-05T14:36:12.339Z,6.50
2018-06-05T14:39:37.598Z,6.40
2018-06-05T14:43:02.618Z,6.00
2018-06-05T14:46:28.692Z,6.47
2018-06-05T14:49:56.138Z,6.57
2018-06-05T14:54:03.011Z,6.33
2018-06-05T14:57:35.408Z,6.72
2018-06-05T15:01:01.405Z,6.60
2018-06-05T15:04:28.255Z,5.55
2018-06-05T15:07:53.720Z,6.03
2018-06-05T15:11:19.920Z,6.40
2018-06-05T15:14:46.377Z,6.43
2018-06-05T15:18:21.263Z,6.17
2018-06-05T15:21:48.163Z,5.47
2018-06-05T15:26:37.700Z,5.70
2018-06-05T15:30:03.591Z,5.23
2018-06-05T15:33:28.802Z,5.72
2018-06-05T15:36:53.530Z,5.45
2018-06-05T15:40:18.285Z,5.05
2018-06-05T15:43:43.065Z,5.85
2018-06-05T15:47:07.883Z,5.70
2018-06-05T15:50:32.664Z,5.80
2018-06-05T15:53:57.385Z,6.28
2018-06-05T15:57:22.323Z,5.42
2018-06-05T16:00:47.606Z,5.85
2018-06-05T16:04:12.574Z,6.45
2018-06-05T16:07:37.335Z,6.00
2018-06-05T16:11:02.000Z,5.65
2018-06-05T16:14:26.783Z,5.12
2018-06-05T16:17:52.634Z,5.62
2018-06-05T16:21:17.613Z,5.58
2018-06-05T16:24:43.263Z,5.92
2018-06-05T16:28:08.069Z,5.95
2018-06-05T16:31:32.937Z,5.70
2018-06-05T16:34:57.733Z,5.15
2018-06-05T16:38:22.511Z,5.30
2018-06-05T16:41:48.367Z,5.53
2018-06-05T16:45:13.487Z,6.80
2018-06-05T16:48:38.380Z,7.08
2018-06-05T16:52:03.098Z,5.40
2018-06-05T16:55:27.893Z,5.47
2018-06-05T16:58:52.704Z,5.15
2018-06-05T17:02:17.544Z,5.87
2018-06-05T17:05:42.255Z,5.40
2018-06-05T17:09:10.994Z,5.05
2018-06-05T17:12:36.123Z,6.20
2018-06-05T17:16:06.587Z,5.65
2018-06-05T17:19:31.562Z,4.87
2018-06-05T17:22:55.871Z,5.80
2018-06-05T17:26:20.834Z,6.80
2018-06-05T17:29:45.645Z,5.17
2018-06-05T17:33:11.538Z,5.17
2018-06-05T17:36:36.356Z,5.00
2018-06-05T17:40:01.188Z,5.40
2018-06-05T17:43:26.204Z,5.15
2018-06-05T17:46:51.616Z,5.95
2018-06-05T17:50:16.782Z,5.15
2018-06-05T17:53:41.473Z,5.28
2018-06-05T17:57:06.399Z,5.45
2018-06-05T18:00:31.159Z,5.37
2018-06-05T18:03:56.126Z,5.30
2018-06-05T18:07:21.070Z,5.08
2018-06-05T18:10:45.967Z,5.37
2018-06-05T18:14:10.570Z,5.67
2018-06-05T18:17:35.424Z,5.00
2018-06-05T18:21:00.540Z,5.25
2018-06-05T18:24:25.017Z,5.25
2018-06-05T18:27:50.098Z,5.12
2018-06-05T18:31:15.946Z,4.58
2018-06-05T18:34:41.301Z,4.87
2018-06-05T18:39:30.833Z,4.57
2018-06-05T18:42:56.010Z,4.20
2018-06-05T18:46:22.247Z,4.50
2018-06-05T18:49:48.364Z,4.60
2018-06-05T18:56:49.661Z,5.13
2018-06-05T19:00:14.525Z,4.67
2018-06-05T19:03:40.814Z,4.50
2018-06-05T19:11:36.868Z,4.20
2018-06-05T19:15:01.819Z,4.30
2018-06-05T19:18:27.942Z,4.20
2018-06-05T19:21:52.951Z,4.40
2018-06-05T19:25:17.762Z,5.33
2018-06-05T19:28:42.600Z,4.50
2018-06-05T19:32:07.521Z,4.53
2018-06-05T19:35:32.290Z,4.30
2018-06-05T19:38:58.194Z,4.20
2018-06-05T19:42:23.036Z,4.57
2018-06-05T19:45:47.825Z,4.90
2018-06-05T19:49:12.578Z,4.90
2018-06-05T19:52:37.347Z,4.63
2018-06-05T19:56:02.112Z,4.53
2018-06-05T19:59:26.876Z,4.80
2018-06-05T20:02:51.630Z,4.23
2018-06-05T20:06:16.505Z,4.50
2018-06-05T20:09:42.291Z,4.23
2018-06-05T20:13:08.633Z,4.40
2018-06-05T20:16:33.461Z,4.60
2018-06-05T20:19:58.832Z,3.90
2018-06-05T20:23:23.634Z,4.63
2018-06-05T20:26:48.380Z,4.40
2018-06-05T20:30:13.174Z,4.10
2018-06-05T20:33:38.130Z,4.20
2018-06-05T20:41:42.687Z,3.97
2018-06-05T20:45:07.857Z,4.40
2018-06-05T20:48:33.802Z,3.87
2018-06-05T20:51:59.432Z,4.17
2018-06-05T20:55:24.431Z,4.20
2018-06-05T20:58:49.450Z,3.80
2018-06-05T21:02:14.455Z,3.90
2018-06-05T21:05:39.347Z,3.90
2018-06-05T21:09:05.195Z,3.87
2018-06-05T21:12:30.247Z,3.53
2018-06-05T21:15:55.185Z,3.60
2018-06-05T21:19:20.306Z,3.73
2018-06-05T21:22:45.169Z,3.77
2018-06-05T21:26:10.654Z,4.13
2018-06-05T21:29:35.697Z,4.37
2018-06-05T21:33:00.527Z,3.90
2018-06-05T21:36:26.371Z,3.23
2018-06-05T21:39:51.238Z,3.97
2018-06-05T21:43:16.154Z,3.07
2018-06-05T21:46:41.243Z,3.50
2018-06-05T21:50:06.308Z,3.43
2018-06-05T21:53:31.139Z,3.70
2018-06-05T21:56:56.018Z,4.00
2018-06-05T22:00:24.452Z,3.40
2018-06-05T22:03:49.404Z,2.87
2018-06-05T22:07:14.256Z,3.17
2018-06-05T22:10:39.147Z,3.27
2018-06-05T22:14:04.128Z,3.23
2018-06-05T22:17:29.043Z,2.90
2018-06-05T22:20:53.997Z,2.83
2018-06-05T22:24:18.910Z,3.13
2018-06-05T22:27:43.845Z,2.60
2018-06-05T22:31:08.539Z,3.33
2018-06-05T22:34:33.433Z,3.13
2018-06-05T22:37:59.333Z,2.83
2018-06-05T22:41:24.173Z,3.03
2018-06-05T22:44:49.086Z,2.93
2018-06-05T22:48:14.120Z,2.87
2018-06-05T22:51:39.182Z,3.47
2018-06-05T22:55:05.177Z,3.20
2018-06-05T22:58:30.015Z,3.50
2018-06-05T23:01:54.786Z,2.90
2018-06-05T23:05:19.721Z,2.87
2018-06-05T23:08:45.828Z,3.17
2018-06-05T23:12:10.827Z,3.13
2018-06-05T23:15:35.741Z,2.90
2018-06-05T23:19:00.637Z,3.20
2018-06-05T23:22:25.607Z,3.10
2018-06-05T23:25:50.659Z,3.07
2018-06-05T23:29:15.595Z,2.97
2018-06-05T23:32:40.549Z,3.00
2018-06-05T23:36:05.407Z,3.10
2018-06-05T23:39:30.252Z,3.23
2018-06-05T23:42:55.174Z,3.00
2018-06-05T23:46:20.180Z,3.07
2018-06-05T23:49:45.053Z,2.90
2018-06-05T23:53:09.997Z,3.03
2018-06-05T23:56:35.798Z,2.80
